Station History

Weather Underground - logo

Station Historical Data
Daily Summary for January 2, 2018 Units:  English    Metric   Both
« Previous Day
Next Day »
Daily Weekly Monthly Yearly Custom
  High: Low: Average:
Temperature: 62.6 °F 38.0 °F 48.7 °F
Dew Point: 47.5 °F 35.6 °F 42.6 °F
Humidity: 94 % 55 % 81 %
Wind Speed: 5.8 mph 0.0 mph 0.3 mph
Wind Gust: 5.8 mph - -
Wind:- - WSW
Pressure: 30.25 in 30.13 in -
Precipitation: 0.00 in    
Historical Graphs
 
 
Tabular Data for January 2, 2018
Time Temperature Dew Point Pressure Wind Wind Speed Wind Gust Humidity Rainfall Rate (Hourly)
00:03 42.9 °F 39.6 °F 30.22 in Calm     88 % 0.00 in
00:04 42.9 °F 39.6 °F 30.22 in Calm     88 % 0.00 in
00:09 42.8 °F 39.5 °F 30.23 in Calm     88 % 0.00 in
00:10 42.8 °F 39.5 °F 30.23 in Calm     88 % 0.00 in
00:15 42.4 °F 39.1 °F 30.23 in Calm     88 % 0.00 in
00:19 42.0 °F 38.7 °F 30.23 in Calm     88 % 0.00 in
00:24 41.6 °F 38.3 °F 30.23 in Calm     88 % 0.00 in
00:34 41.1 °F 38.1 °F 30.24 in Calm     89 % 0.00 in
00:36 41.0 °F 38.0 °F 30.24 in Calm     89 % 0.00 in
00:42 40.9 °F 38.2 °F 30.23 in Calm     90 % 0.00 in
00:43 40.9 °F 38.2 °F 30.23 in Calm     90 % 0.00 in
00:48 40.8 °F 38.1 °F 30.24 in Calm     90 % 0.00 in
00:49 40.8 °F 38.1 °F 30.24 in Calm     90 % 0.00 in
00:54 40.7 °F 38.0 °F 30.23 in Calm     90 % 0.00 in
00:57 40.7 °F 38.0 °F 30.23 in Calm     90 % 0.00 in
01:02 40.8 °F 38.4 °F 30.23 in Calm     91 % 0.00 in
01:03 40.8 °F 38.4 °F 30.23 in Calm     91 % 0.00 in
01:04 40.7 °F 38.3 °F 30.23 in Calm     91 % 0.00 in
01:14 40.4 °F 38.0 °F 30.24 in Calm     91 % 0.00 in
01:17 40.4 °F 38.0 °F 30.24 in Calm     91 % 0.00 in
01:21 40.4 °F 38.0 °F 30.24 in Calm     91 % 0.00 in
01:26 40.3 °F 37.9 °F 30.24 in Calm     91 % 0.00 in
01:27 40.3 °F 38.2 °F 30.23 in Calm     92 % 0.00 in
01:32 40.6 °F 38.5 °F 30.24 in Calm     92 % 0.00 in
01:37 40.6 °F 38.5 °F 30.24 in Calm     92 % 0.00 in
01:40 40.5 °F 38.4 °F 30.24 in Calm     92 % 0.00 in
01:42 40.5 °F 38.4 °F 30.24 in Calm     92 % 0.00 in
01:46 40.4 °F 38.3 °F 30.24 in Calm     92 % 0.00 in
01:51 40.2 °F 37.8 °F 30.24 in Calm     91 % 0.00 in
01:54 40.0 °F 37.6 °F 30.24 in Calm     91 % 0.00 in
01:55 40.0 °F 37.6 °F 30.24 in Calm     91 % 0.00 in
02:00 39.9 °F 37.5 °F 30.24 in Calm     91 % 0.00 in
02:01 39.9 °F 37.5 °F 30.24 in Calm     91 % 0.00 in
02:06 39.9 °F 37.5 °F 30.24 in WNW 5.8 mph 5.8 mph 91 % 0.00 in
02:07 40.0 °F 37.6 °F 30.24 in Calm     91 % 0.00 in
02:12 40.3 °F 38.2 °F 30.23 in Calm     92 % 0.00 in
02:13 40.3 °F 38.2 °F 30.23 in Calm     92 % 0.00 in
02:15 40.4 °F 38.3 °F 30.23 in Calm     92 % 0.00 in
02:19 40.4 °F 38.3 °F 30.23 in Calm     92 % 0.00 in
02:24 40.8 °F 38.7 °F 30.23 in Calm     92 % 0.00 in
02:28 41.0 °F 38.9 °F 30.23 in Calm     92 % 0.00 in
02:33 41.1 °F 38.7 °F 30.23 in Calm     91 % 0.00 in
02:37 41.1 °F 38.7 °F 30.23 in Calm     91 % 0.00 in
02:38 41.1 °F 38.7 °F 30.22 in Calm     91 % 0.00 in
02:43 41.1 °F 38.7 °F 30.22 in Calm     91 % 0.00 in
02:46 41.3 °F 39.2 °F 30.22 in Calm     92 % 0.00 in
02:51 41.6 °F 39.2 °F 30.22 in Calm     91 % 0.00 in
02:53 41.5 °F 39.1 °F 30.22 in Calm     91 % 0.00 in
02:57 41.4 °F 38.7 °F 30.22 in Calm     90 % 0.00 in
03:02 41.1 °F 38.4 °F 30.22 in Calm     90 % 0.00 in
03:03 41.0 °F 38.3 °F 30.22 in Calm     90 % 0.00 in
03:07 40.7 °F 38.0 °F 30.22 in Calm     90 % 0.00 in
03:11 40.3 °F 37.3 °F 30.22 in Calm     89 % 0.00 in
03:16 39.9 °F 37.2 °F 30.21 in Calm     90 % 0.00 in
03:18 39.8 °F 37.4 °F 30.21 in Calm     91 % 0.00 in
03:21 39.7 °F 37.3 °F 30.21 in Calm     91 % 0.00 in
03:24 39.7 °F 37.3 °F 30.21 in Calm     91 % 0.00 in
03:27 39.6 °F 37.2 °F 30.21 in Calm     91 % 0.00 in
03:32 39.5 °F 37.1 °F 30.21 in Calm     91 % 0.00 in
03:37 39.5 °F 37.1 °F 30.20 in Calm     91 % 0.00 in
03:38 39.4 °F 37.0 °F 30.20 in Calm     91 % 0.00 in
03:43 39.5 °F 37.4 °F 30.20 in Calm     92 % 0.00 in
03:48 39.4 °F 37.3 °F 30.20 in Calm     92 % 0.00 in
03:50 39.4 °F 37.3 °F 30.20 in Calm     92 % 0.00 in
03:55 39.0 °F 36.6 °F 30.21 in Calm     91 % 0.00 in
03:56 38.9 °F 36.2 °F 30.21 in Calm     90 % 0.00 in
03:57 38.8 °F 36.1 °F 30.21 in WSW 1.0 mph 1.0 mph 90 % 0.00 in
04:02 38.4 °F 36.0 °F 30.21 in Calm     91 % 0.00 in
04:04 38.3 °F 35.9 °F 30.21 in WSW 1.2 mph   91 % 0.00 in
04:08 38.1 °F 35.7 °F 30.21 in Calm     91 % 0.00 in
04:09 38.1 °F 35.7 °F 30.21 in Calm     91 % 0.00 in
04:11 38.0 °F 35.6 °F 30.21 in Calm     91 % 0.00 in
04:16 38.0 °F 35.9 °F 30.21 in Calm     92 % 0.00 in
04:20 38.0 °F 35.9 °F 30.21 in Calm     92 % 0.00 in
04:25 38.0 °F 35.9 °F 30.21 in Calm     92 % 0.00 in
04:29 38.0 °F 35.9 °F 30.22 in Calm     92 % 0.00 in
04:34 38.1 °F 36.3 °F 30.22 in Calm     93 % 0.00 in
04:36 38.2 °F 36.4 °F 30.22 in Calm     93 % 0.00 in
04:39 38.3 °F 36.5 °F 30.22 in Calm     93 % 0.00 in
04:41 38.5 °F 36.7 °F 30.22 in Calm     93 % 0.00 in
04:44 38.7 °F 36.9 °F 30.22 in Calm     93 % 0.00 in
04:47 38.7 °F 36.9 °F 30.22 in Calm     93 % 0.00 in
04:52 38.9 °F 37.0 °F 30.22 in Calm     93 % 0.00 in
04:53 38.9 °F 37.0 °F 30.22 in Calm     93 % 0.00 in
04:56 39.1 °F 37.5 °F 30.22 in Calm     94 % 0.00 in
04:58 39.4 °F 37.8 °F 30.22 in Calm     94 % 0.00 in
05:04 39.8 °F 38.2 °F 30.22 in Calm     94 % 0.00 in
05:05 39.9 °F 38.3 °F 30.22 in Calm     94 % 0.00 in
05:09 40.1 °F 38.5 °F 30.23 in Calm     94 % 0.00 in
05:13 40.1 °F 38.2 °F 30.23 in Calm     93 % 0.00 in
05:15 40.2 °F 38.3 °F 30.23 in Calm     93 % 0.00 in
05:20 40.3 °F 38.4 °F 30.23 in Calm     93 % 0.00 in
05:21 40.3 °F 38.4 °F 30.23 in Calm     93 % 0.00 in
05:23 40.3 °F 38.4 °F 30.23 in Calm     93 % 0.00 in
05:26 40.4 °F 38.5 °F 30.23 in Calm     93 % 0.00 in
05:29 40.4 °F 38.5 °F 30.23 in Calm     93 % 0.00 in
05:32 40.6 °F 38.7 °F 30.23 in Calm     93 % 0.00 in
05:34 40.7 °F 38.8 °F 30.23 in Calm     93 % 0.00 in
05:39 41.0 °F 39.1 °F 30.23 in Calm     93 % 0.00 in
05:44 41.2 °F 39.1 °F 30.23 in Calm     92 % 0.00 in
05:47 41.2 °F 39.1 °F 30.23 in Calm     92 % 0.00 in
05:52 41.0 °F 38.9 °F 30.23 in Calm     92 % 0.00 in
05:53 41.0 °F 38.9 °F 30.23 in Calm     92 % 0.00 in
05:58 41.0 °F 38.9 °F 30.24 in Calm     92 % 0.00 in
06:03 40.9 °F 38.8 °F 30.23 in Calm     92 % 0.00 in
06:08 40.9 °F 38.8 °F 30.23 in Calm     92 % 0.00 in
06:09 40.9 °F 38.8 °F 30.23 in Calm     92 % 0.00 in
06:14 40.9 °F 38.8 °F 30.24 in Calm     92 % 0.00 in
06:19 40.9 °F 38.8 °F 30.23 in Calm     92 % 0.00 in
06:20 40.8 °F 38.7 °F 30.24 in Calm     92 % 0.00 in
06:25 40.7 °F 38.6 °F 30.24 in Calm     92 % 0.00 in
06:27 40.6 °F 38.2 °F 30.23 in Calm     91 % 0.00 in
06:32 40.4 °F 38.0 °F 30.24 in Calm     91 % 0.00 in
06:34 40.4 °F 38.0 °F 30.24 in Calm     91 % 0.00 in
06:36 40.3 °F 37.9 °F 30.24 in Calm     91 % 0.00 in
06:39 40.2 °F 38.1 °F 30.24 in Calm     92 % 0.00 in
06:42 40.1 °F 38.0 °F 30.24 in Calm     92 % 0.00 in
06:47 40.0 °F 37.9 °F 30.24 in Calm     92 % 0.00 in
06:49 39.9 °F 37.8 °F 30.24 in Calm     92 % 0.00 in
06:54 39.9 °F 37.8 °F 30.24 in Calm     92 % 0.00 in
06:55 39.9 °F 37.8 °F 30.24 in Calm     92 % 0.00 in
06:58 40.2 °F 38.3 °F 30.23 in Calm     93 % 0.00 in
07:03 40.3 °F 38.4 °F 30.24 in Calm     93 % 0.00 in
07:07 40.3 °F 38.2 °F 30.23 in Calm     92 % 0.00 in
07:12 40.3 °F 38.2 °F 30.24 in Calm     92 % 0.00 in
07:16 40.1 °F 37.7 °F 30.23 in Calm     91 % 0.00 in
07:20 39.9 °F 37.5 °F 30.23 in Calm     91 % 0.00 in
07:25 40.1 °F 38.2 °F 30.23 in Calm     93 % 0.00 in
07:28 40.2 °F 38.3 °F 30.23 in Calm     93 % 0.00 in
07:31 40.3 °F 38.4 °F 30.23 in Calm     93 % 0.00 in
07:33 40.3 °F 38.4 °F 30.23 in Calm     93 % 0.00 in
07:38 40.3 °F 38.2 °F 30.23 in Calm     92 % 0.00 in
07:39 40.3 °F 38.2 °F 30.23 in Calm     92 % 0.00 in
07:40 40.4 °F 38.3 °F 30.23 in Calm     92 % 0.00 in
07:44 40.4 °F 38.3 °F 30.23 in Calm     92 % 0.00 in
07:49 40.4 °F 38.3 °F 30.23 in Calm     92 % 0.00 in
07:50 40.4 °F 38.3 °F 30.23 in Calm     92 % 0.00 in
07:55 40.4 °F 38.3 °F 30.23 in Calm     92 % 0.00 in
07:56 40.5 °F 38.4 °F 30.23 in Calm     92 % 0.00 in
08:01 40.7 °F 38.6 °F 30.24 in Calm     92 % 0.00 in
08:06 41.1 °F 39.0 °F 30.24 in Calm     92 % 0.00 in
08:12 41.3 °F 39.2 °F 30.24 in Calm     92 % 0.00 in
08:13 41.3 °F 39.2 °F 30.24 in Calm     92 % 0.00 in
08:18 41.6 °F 39.4 °F 30.24 in Calm     92 % 0.00 in
08:19 41.7 °F 39.5 °F 30.24 in Calm     92 % 0.00 in
08:24 41.9 °F 39.7 °F 30.25 in Calm     92 % 0.00 in
08:29 42.2 °F 40.0 °F 30.25 in Calm     92 % 0.00 in
08:34 42.4 °F 40.2 °F 30.24 in Calm     92 % 0.00 in
08:39 42.7 °F 40.5 °F 30.25 in Calm     92 % 0.00 in
08:42 42.9 °F 40.7 °F 30.25 in Calm     92 % 0.00 in
08:47 43.2 °F 41.0 °F 30.25 in Calm     92 % 0.00 in
08:48 43.3 °F 41.1 °F 30.25 in Calm     92 % 0.00 in
08:49 43.4 °F 41.2 °F 30.25 in Calm     92 % 0.00 in
08:54 43.7 °F 41.8 °F 30.25 in WSW 1.2 mph 1.2 mph 93 % 0.00 in
08:57 43.8 °F 41.6 °F 30.25 in SW 1.2 mph   92 % 0.00 in
09:02 44.2 °F 42.0 °F 30.25 in Calm     92 % 0.00 in
09:03 44.3 °F 42.1 °F 30.25 in SE 1.2 mph 1.2 mph 92 % 0.00 in
09:06 44.6 °F 42.4 °F 30.25 in SE 1.2 mph   92 % 0.00 in
09:11 45.2 °F 43.0 °F 30.25 in Calm     92 % 0.00 in
09:13 45.4 °F 43.2 °F 30.25 in Calm     92 % 0.00 in
09:18 46.1 °F 43.6 °F 30.25 in Calm     91 % 0.00 in
09:23 46.8 °F 44.0 °F 30.25 in Calm     90 % 0.00 in
09:24 46.9 °F 44.1 °F 30.25 in Calm     90 % 0.00 in
09:26 47.2 °F 44.4 °F 30.25 in Calm     90 % 0.00 in
09:31 47.9 °F 44.5 °F 30.25 in SE 1.0 mph 1.0 mph 88 % 0.00 in
09:33 48.1 °F 44.7 °F 30.25 in SE 1.2 mph   88 % 0.00 in
09:35 48.3 °F 44.9 °F 30.25 in Calm     88 % 0.00 in
09:40 48.8 °F 44.8 °F 30.25 in Calm     86 % 0.00 in
09:42 48.9 °F 44.9 °F 30.25 in ESE 1.2 mph 1.2 mph 86 % 0.00 in
09:46 49.3 °F 44.7 °F 30.25 in SE 1.2 mph 1.2 mph 84 % 0.00 in
09:47 49.3 °F 44.7 °F 30.25 in SE 2.3 mph 2.3 mph 84 % 0.00 in
09:51 49.7 °F 44.7 °F 30.25 in Calm     83 % 0.00 in
09:56 50.1 °F 45.1 °F 30.25 in SE 1.2 mph   83 % 0.00 in
09:57 50.2 °F 45.2 °F 30.25 in Calm     83 % 0.00 in
10:02 50.6 °F 45.0 °F 30.25 in SE 1.2 mph 1.2 mph 81 % 0.00 in
10:07 51.0 °F 45.0 °F 30.25 in SE 1.2 mph   80 % 0.00 in
10:08 51.0 °F 45.0 °F 30.25 in Calm     80 % 0.00 in
10:13 51.3 °F 45.3 °F 30.25 in Calm     80 % 0.00 in
10:14 51.5 °F 45.5 °F 30.25 in SE 1.0 mph   80 % 0.00 in
10:18 51.7 °F 45.7 °F 30.24 in SE 1.2 mph   80 % 0.00 in
10:21 51.9 °F 45.6 °F 30.24 in SE 1.2 mph   79 % 0.00 in
10:26 52.2 °F 45.9 °F 30.24 in SE 1.2 mph   79 % 0.00 in
10:29 52.4 °F 45.7 °F 30.24 in SE 1.2 mph 1.2 mph 78 % 0.00 in
10:34 52.8 °F 46.1 °F 30.24 in Calm     78 % 0.00 in
10:36 52.9 °F 46.2 °F 30.24 in Calm     78 % 0.00 in
10:41 53.4 °F 46.4 °F 30.24 in Calm     77 % 0.00 in
10:42 53.5 °F 46.5 °F 30.23 in Calm     77 % 0.00 in
10:44 53.7 °F 46.7 °F 30.23 in Calm     77 % 0.00 in
10:49 54.2 °F 46.1 °F 30.23 in Calm     74 % 0.00 in
10:50 54.2 °F 46.1 °F 30.23 in Calm     74 % 0.00 in
10:51 54.3 °F 46.2 °F 30.23 in Calm     74 % 0.00 in
10:55 54.7 °F 46.2 °F 30.23 in Calm     73 % 0.00 in
11:00 55.2 °F 46.7 °F 30.22 in Calm     73 % 0.00 in
11:01 55.3 °F 46.1 °F 30.22 in Calm     71 % 0.00 in
11:05 55.8 °F 46.2 °F 30.22 in Calm     70 % 0.00 in
11:06 55.9 °F 46.3 °F 30.22 in Calm     70 % 0.00 in
11:11 56.4 °F 46.0 °F 30.22 in Calm     68 % 0.00 in
11:12 56.5 °F 45.7 °F 30.22 in Calm     67 % 0.00 in
11:17 56.9 °F 45.7 °F 30.22 in Calm     66 % 0.00 in
11:18 57.0 °F 46.1 °F 30.22 in Calm     67 % 0.00 in
11:23 57.4 °F 46.1 °F 30.22 in Calm     66 % 0.00 in
11:27 57.6 °F 45.9 °F 30.21 in Calm     65 % 0.00 in
11:32 57.6 °F 46.3 °F 30.21 in Calm     66 % 0.00 in
11:36 57.7 °F 46.0 °F 30.20 in Calm     65 % 0.00 in
11:42 58.0 °F 45.9 °F 30.20 in Calm     64 % 0.00 in
11:43 58.1 °F 46.0 °F 30.20 in Calm     64 % 0.00 in
11:47 58.4 °F 45.8 °F 30.20 in Calm     63 % 0.00 in
11:53 58.4 °F 45.0 °F 30.19 in Calm     61 % 0.00 in
11:55 58.5 °F 45.9 °F 30.19 in Calm     63 % 0.00 in
11:59 58.6 °F 45.6 °F 30.19 in Calm     62 % 0.00 in
12:04 58.7 °F 45.7 °F 30.19 in Calm     62 % 0.00 in
12:06 58.7 °F 45.7 °F 30.19 in WNW 1.2 mph 1.2 mph 62 % 0.00 in
12:11 58.8 °F 45.4 °F 30.19 in WNW 1.2 mph   61 % 0.00 in
12:15 58.9 °F 45.9 °F 30.19 in Calm     62 % 0.00 in
12:20 59.0 °F 46.4 °F 30.18 in Calm     63 % 0.00 in
12:21 59.1 °F 46.5 °F 30.18 in Calm     63 % 0.00 in
12:30 59.1 °F 46.1 °F 30.17 in Calm     62 % 0.00 in
12:35 59.1 °F 46.1 °F 30.17 in WNW 1.2 mph   62 % 0.00 in
12:37 59.2 °F 46.2 °F 30.17 in Calm     62 % 0.00 in
12:39 59.2 °F 46.2 °F 30.17 in Calm     62 % 0.00 in
12:42 59.3 °F 46.3 °F 30.17 in West 1.2 mph 1.2 mph 62 % 0.00 in
12:46 59.5 °F 46.5 °F 30.16 in WNW 1.2 mph 1.2 mph 62 % 0.00 in
12:49 59.5 °F 46.0 °F 30.16 in Calm     61 % 0.00 in
12:52 59.5 °F 46.5 °F 30.16 in Calm     62 % 0.00 in
12:57 59.7 °F 46.7 °F 30.16 in Calm     62 % 0.00 in
12:58 59.7 °F 46.2 °F 30.16 in WNW 1.2 mph 1.2 mph 61 % 0.00 in
13:00 59.8 °F 46.7 °F 30.16 in Calm   0.1 mph 62 % 0.00 in
13:04 59.9 °F 46.4 °F 30.16 in West 1.2 mph   61 % 0.00 in
13:07 60.0 °F 46.9 °F 30.16 in Calm     62 % 0.00 in
13:12 60.0 °F 46.5 °F 30.15 in Calm     61 % 0.00 in
13:17 60.1 °F 46.6 °F 30.15 in NW 1.2 mph   61 % 0.00 in
13:22 60.3 °F 46.8 °F 30.15 in NW 1.2 mph 1.2 mph 61 % 0.00 in
13:27 60.4 °F 46.9 °F 30.15 in NW 1.2 mph 1.2 mph 61 % 0.00 in
13:30 60.5 °F 47.0 °F 30.15 in West 1.2 mph 1.2 mph 61 % 0.00 in
13:31 60.6 °F 47.5 °F 30.15 in West 1.2 mph   62 % 0.00 in
13:36 60.9 °F 46.9 °F 30.15 in Calm     60 % 0.00 in
13:41 61.1 °F 47.1 °F 30.15 in Calm     60 % 0.00 in
13:46 61.3 °F 46.8 °F 30.15 in SW 2.0 mph 2.0 mph 59 % 0.00 in
13:47 61.4 °F 46.5 °F 30.15 in SW 2.3 mph 2.3 mph 58 % 0.00 in
13:50 61.4 °F 46.9 °F 30.15 in NW 1.2 mph 1.2 mph 59 % 0.00 in
13:54 61.5 °F 46.6 °F 30.14 in Calm     58 % 0.00 in
13:58 61.6 °F 46.7 °F 30.14 in WNW 1.2 mph 1.2 mph 58 % 0.00 in
14:06 62.0 °F 47.0 °F 30.14 in NW 1.2 mph 1.2 mph 58 % 0.00 in
14:09 62.2 °F 47.2 °F 30.14 in WNW 1.2 mph 1.2 mph 58 % 0.00 in
14:15 62.2 °F 46.8 °F 30.14 in WNW 1.2 mph   57 % 0.00 in
14:16 62.2 °F 46.8 °F 30.14 in West 2.0 mph 2.0 mph 57 % 0.00 in
14:21 62.5 °F 46.6 °F 30.14 in WNW 1.2 mph 1.2 mph 56 % 0.00 in
14:26 62.5 °F 46.6 °F 30.14 in WNW 1.2 mph   56 % 0.00 in
14:28 62.5 °F 46.6 °F 30.14 in NW 2.3 mph 2.3 mph 56 % 0.00 in
14:29 62.5 °F 46.1 °F 30.14 in NW 2.3 mph 2.3 mph 55 % 0.00 in
14:34 62.4 °F 46.5 °F 30.14 in WNW 2.3 mph 2.3 mph 56 % 0.00 in
14:36 62.4 °F 46.5 °F 30.14 in NW 1.2 mph 1.2 mph 56 % 0.00 in
14:40 62.4 °F 46.5 °F 30.14 in NW 1.2 mph 1.2 mph 56 % 0.00 in
14:45 62.4 °F 46.5 °F 30.14 in NW 1.2 mph 1.2 mph 56 % 0.00 in
14:46 62.5 °F 46.6 °F 30.14 in NW 1.2 mph 1.2 mph 56 % 0.00 in
14:49 62.5 °F 46.6 °F 30.14 in West 1.2 mph   56 % 0.00 in
14:52 62.6 °F 46.7 °F 30.14 in WNW 1.2 mph 1.2 mph 56 % 0.00 in
14:57 62.6 °F 46.2 °F 30.14 in NW 1.2 mph 1.2 mph 55 % 0.00 in
14:58 62.6 °F 46.2 °F 30.14 in NW 2.3 mph 2.3 mph 55 % 0.00 in
15:03 62.6 °F 46.2 °F 30.14 in NW 2.3 mph 2.3 mph 55 % 0.00 in
15:09 62.5 °F 46.1 °F 30.15 in NW 1.2 mph   55 % 0.00 in
15:10 62.5 °F 46.6 °F 30.15 in Calm     56 % 0.00 in
15:13 62.5 °F 46.1 °F 30.15 in Calm     55 % 0.00 in
15:15 62.5 °F 46.1 °F 30.15 in Calm     55 % 0.00 in
15:20 62.4 °F 46.5 °F 30.15 in NW 1.2 mph   56 % 0.00 in
15:21 62.3 °F 45.9 °F 30.15 in NW 1.2 mph   55 % 0.00 in
15:26 62.2 °F 46.3 °F 30.15 in NW 1.2 mph 1.2 mph 56 % 0.00 in
15:28 62.2 °F 46.3 °F 30.15 in NNW 2.0 mph 2.0 mph 56 % 0.00 in
15:33 62.1 °F 46.2 °F 30.15 in WNW 1.2 mph 1.2 mph 56 % 0.00 in
15:34 62.0 °F 46.1 °F 30.15 in NW 1.2 mph 1.2 mph 56 % 0.00 in
15:39 61.8 °F 46.4 °F 30.14 in NW 1.2 mph 1.2 mph 57 % 0.00 in
15:42 61.8 °F 46.4 °F 30.15 in NW 2.3 mph 2.3 mph 57 % 0.00 in
15:46 61.6 °F 47.1 °F 30.15 in NW 1.0 mph 1.0 mph 59 % 0.00 in
15:47 61.5 °F 47.0 °F 30.15 in WNW 1.2 mph 1.2 mph 59 % 0.00 in
15:51 61.3 °F 47.3 °F 30.15 in WNW 1.2 mph 1.2 mph 60 % 0.00 in
15:53 61.2 °F 47.2 °F 30.15 in NW 1.2 mph 1.2 mph 60 % 0.00 in
15:58 60.9 °F 46.9 °F 30.15 in WNW 1.2 mph   60 % 0.00 in
16:03 60.7 °F 46.7 °F 30.15 in WNW 2.3 mph 2.3 mph 60 % 0.00 in
16:04 60.6 °F 46.6 °F 30.15 in NW 1.2 mph 1.2 mph 60 % 0.00 in
16:09 60.4 °F 46.9 °F 30.15 in West 1.2 mph 1.2 mph 61 % 0.00 in
16:10 60.3 °F 46.8 °F 30.15 in NW 2.3 mph 2.3 mph 61 % 0.00 in
16:13 60.2 °F 46.7 °F 30.14 in NNW 1.0 mph 1.0 mph 61 % 0.00 in
16:18 60.0 °F 46.9 °F 30.14 in Calm     62 % 0.00 in
16:23 59.7 °F 46.7 °F 30.14 in NW 1.0 mph 1.0 mph 62 % 0.00 in
16:25 59.6 °F 47.0 °F 30.14 in NW 1.2 mph 1.2 mph 63 % 0.00 in
16:26 59.6 °F 47.0 °F 30.14 in NW 1.2 mph   63 % 0.00 in
16:31 59.5 °F 46.9 °F 30.15 in Calm     63 % 0.00 in
16:32 59.4 °F 46.8 °F 30.15 in Calm     63 % 0.00 in
16:37 59.2 °F 47.0 °F 30.14 in NW 1.2 mph 1.2 mph 64 % 0.00 in
16:42 58.9 °F 47.2 °F 30.14 in Calm     65 % 0.00 in
16:47 58.7 °F 47.0 °F 30.14 in Calm     65 % 0.00 in
16:48 58.7 °F 47.0 °F 30.13 in NW 1.2 mph 1.2 mph 65 % 0.00 in
16:53 58.5 °F 47.2 °F 30.14 in Calm     66 % 0.00 in
16:54 58.4 °F 47.1 °F 30.14 in NW 1.0 mph   66 % 0.00 in
16:55 58.4 °F 47.1 °F 30.14 in NW 1.2 mph 1.2 mph 66 % 0.00 in
16:57 58.3 °F 47.0 °F 30.14 in Calm     66 % 0.00 in
17:00 58.1 °F 46.8 °F 30.14 in Calm     66 % 0.00 in
17:04 57.9 °F 47.0 °F 30.14 in Calm     67 % 0.00 in
17:05 57.8 °F 46.9 °F 30.14 in Calm     67 % 0.00 in
17:10 57.6 °F 46.7 °F 30.14 in Calm     67 % 0.00 in
17:15 57.4 °F 46.9 °F 30.14 in Calm     68 % 0.00 in
17:19 57.2 °F 46.7 °F 30.15 in Calm     68 % 0.00 in
17:23 56.9 °F 46.8 °F 30.15 in Calm     69 % 0.00 in
17:28 56.3 °F 46.6 °F 30.15 in Calm     70 % 0.00 in
17:29 56.2 °F 46.5 °F 30.15 in Calm     70 % 0.00 in
17:34 55.6 °F 46.3 °F 30.15 in Calm     71 % 0.00 in
17:39 55.5 °F 46.6 °F 30.15 in Calm     72 % 0.00 in
17:44 55.6 °F 46.3 °F 30.15 in Calm     71 % 0.00 in
17:48 55.6 °F 46.3 °F 30.15 in Calm     71 % 0.00 in
17:52 55.7 °F 46.4 °F 30.15 in Calm     71 % 0.00 in
17:55 55.7 °F 46.4 °F 30.15 in Calm     71 % 0.00 in
18:00 55.6 °F 46.3 °F 30.15 in Calm     71 % 0.00 in
18:05 55.2 °F 46.3 °F 30.14 in Calm     72 % 0.00 in
18:06 55.2 °F 46.3 °F 30.14 in Calm     72 % 0.00 in
18:07 55.1 °F 46.2 °F 30.14 in Calm     72 % 0.00 in
18:11 54.8 °F 46.3 °F 30.14 in Calm     73 % 0.00 in
18:16 54.5 °F 46.4 °F 30.14 in Calm     74 % 0.00 in
18:17 54.5 °F 46.4 °F 30.14 in Calm     74 % 0.00 in
18:20 54.3 °F 46.2 °F 30.14 in Calm     74 % 0.00 in
18:22 54.2 °F 46.4 °F 30.14 in Calm     75 % 0.00 in
18:27 53.9 °F 46.2 °F 30.14 in Calm     75 % 0.00 in
18:28 53.8 °F 46.1 °F 30.14 in Calm     75 % 0.00 in
18:33 53.7 °F 46.3 °F 30.14 in Calm     76 % 0.00 in
18:38 53.5 °F 46.1 °F 30.14 in Calm     76 % 0.00 in
18:39 53.5 °F 46.1 °F 30.14 in Calm     76 % 0.00 in
18:45 53.3 °F 46.3 °F 30.13 in Calm     77 % 0.00 in
18:46 53.3 °F 46.3 °F 30.14 in Calm     77 % 0.00 in
18:51 53.0 °F 46.0 °F 30.14 in Calm     77 % 0.00 in
18:53 52.9 °F 46.2 °F 30.14 in Calm     78 % 0.00 in
18:57 52.5 °F 45.8 °F 30.14 in Calm     78 % 0.00 in
18:59 52.3 °F 46.0 °F 30.14 in Calm     79 % 0.00 in
19:04 51.9 °F 45.9 °F 30.14 in Calm     80 % 0.00 in
19:08 51.6 °F 45.6 °F 30.14 in Calm     80 % 0.00 in
19:15 51.2 °F 45.6 °F 30.13 in Calm     81 % 0.00 in
19:20 51.0 °F 45.7 °F 30.13 in Calm     82 % 0.00 in
19:25 50.8 °F 45.5 °F 30.13 in Calm     82 % 0.00 in
19:30 50.6 °F 45.3 °F 30.13 in Calm     82 % 0.00 in
19:35 50.7 °F 45.4 °F 30.14 in Calm     82 % 0.00 in
19:40 50.4 °F 45.1 °F 30.14 in Calm     82 % 0.00 in
19:45 49.9 °F 44.9 °F 30.13 in Calm     83 % 0.00 in
19:49 49.6 °F 44.6 °F 30.14 in Calm     83 % 0.00 in
19:51 49.5 °F 44.6 °F 30.14 in Calm     83 % 0.00 in
19:56 49.2 °F 44.6 °F 30.14 in Calm     84 % 0.00 in
19:58 49.1 °F 44.5 °F 30.14 in Calm     84 % 0.00 in
20:03 48.8 °F 44.2 °F 30.14 in Calm     84 % 0.00 in
20:07 48.5 °F 43.9 °F 30.14 in Calm     84 % 0.00 in
20:12 48.3 °F 44.0 °F 30.14 in Calm     85 % 0.00 in
20:15 48.2 °F 43.9 °F 30.14 in Calm     85 % 0.00 in
20:20 48.2 °F 44.2 °F 30.14 in Calm     86 % 0.00 in
20:22 48.3 °F 44.0 °F 30.14 in NE 1.2 mph   85 % 0.00 in
20:27 48.4 °F 44.1 °F 30.15 in Calm     85 % 0.00 in
20:32 48.4 °F 44.1 °F 30.15 in Calm     85 % 0.00 in
20:37 48.3 °F 44.0 °F 30.15 in Calm     85 % 0.00 in
20:41 48.3 °F 44.0 °F 30.15 in Calm     85 % 0.00 in
20:46 48.2 °F 44.2 °F 30.14 in NE 1.0 mph 1.0 mph 86 % 0.00 in
20:48 48.3 °F 44.3 °F 30.14 in NE 1.2 mph   86 % 0.00 in
20:53 48.5 °F 44.5 °F 30.15 in Calm     86 % 0.00 in
20:54 48.5 °F 44.2 °F 30.15 in NE 1.0 mph   85 % 0.00 in
20:59 48.5 °F 44.2 °F 30.14 in NE 1.2 mph 1.2 mph 85 % 0.00 in
21:04 48.4 °F 44.1 °F 30.14 in Calm     85 % 0.00 in
21:05 48.4 °F 44.4 °F 30.14 in NE 1.2 mph   86 % 0.00 in
21:10 48.4 °F 44.1 °F 30.14 in Calm     85 % 0.00 in
21:15 47.9 °F 43.6 °F 30.15 in Calm     85 % 0.00 in
21:16 47.7 °F 43.4 °F 30.15 in Calm     85 % 0.00 in
21:21 47.2 °F 43.2 °F 30.14 in Calm     86 % 0.00 in
21:25 47.0 °F 43.3 °F 30.15 in Calm     87 % 0.00 in
21:29 46.8 °F 43.1 °F 30.15 in Calm     87 % 0.00 in
21:34 46.4 °F 42.7 °F 30.16 in Calm     87 % 0.00 in
21:36 46.3 °F 42.9 °F 30.16 in Calm     88 % 0.00 in
21:41 45.9 °F 42.5 °F 30.16 in Calm     88 % 0.00 in
21:42 45.8 °F 42.4 °F 30.16 in Calm     88 % 0.00 in
21:47 45.6 °F 42.5 °F 30.16 in Calm     89 % 0.00 in
21:52 45.5 °F 42.7 °F 30.17 in Calm     90 % 0.00 in
21:53 45.3 °F 42.5 °F 30.17 in Calm     90 % 0.00 in
21:58 45.0 °F 42.2 °F 30.17 in Calm     90 % 0.00 in
22:01 44.9 °F 42.1 °F 30.17 in Calm     90 % 0.00 in
22:06 44.7 °F 41.9 °F 30.17 in Calm     90 % 0.00 in
22:07 44.6 °F 42.1 °F 30.17 in Calm     91 % 0.00 in
22:12 44.6 °F 42.1 °F 30.17 in Calm     91 % 0.00 in
22:13 44.6 °F 42.1 °F 30.17 in Calm     91 % 0.00 in
22:18 44.6 °F 42.4 °F 30.17 in Calm     92 % 0.00 in
22:19 44.5 °F 42.3 °F 30.17 in Calm     92 % 0.00 in
22:24 44.3 °F 41.8 °F 30.17 in Calm     91 % 0.00 in
22:25 44.3 °F 41.8 °F 30.17 in Calm     91 % 0.00 in
22:28 44.3 °F 42.1 °F 30.17 in Calm     92 % 0.00 in
22:32 44.3 °F 42.1 °F 30.17 in Calm     92 % 0.00 in
22:37 44.3 °F 42.1 °F 30.17 in Calm     92 % 0.00 in
22:38 44.3 °F 42.1 °F 30.17 in Calm     92 % 0.00 in
22:39 44.2 °F 42.0 °F 30.17 in Calm     92 % 0.00 in
22:44 44.1 °F 41.9 °F 30.17 in Calm     92 % 0.00 in
22:49 44.0 °F 41.8 °F 30.17 in Calm     92 % 0.00 in
22:50 44.0 °F 41.8 °F 30.17 in Calm     92 % 0.00 in
22:55 43.8 °F 41.6 °F 30.17 in Calm     92 % 0.00 in
22:57 43.8 °F 41.6 °F 30.17 in Calm     92 % 0.00 in
23:02 43.8 °F 41.6 °F 30.17 in Calm     92 % 0.00 in
23:03 43.9 °F 41.7 °F 30.17 in Calm     92 % 0.00 in
23:08 43.9 °F 41.7 °F 30.17 in Calm     92 % 0.00 in
23:09 43.9 °F 41.7 °F 30.17 in Calm     92 % 0.00 in
23:10 43.9 °F 41.7 °F 30.17 in Calm     92 % 0.00 in
23:14 44.1 °F 42.2 °F 30.17 in Calm     93 % 0.00 in
23:19 44.7 °F 42.8 °F 30.17 in NE 1.2 mph   93 % 0.00 in
23:23 44.9 °F 42.7 °F 30.17 in North 1.2 mph 1.2 mph 92 % 0.00 in
23:28 45.1 °F 42.6 °F 30.17 in WNW 1.2 mph   91 % 0.00 in
23:30 45.1 °F 42.6 °F 30.17 in Calm     91 % 0.00 in
23:35 45.2 °F 42.4 °F 30.17 in Calm     90 % 0.00 in
23:38 45.3 °F 42.5 °F 30.17 in Calm     90 % 0.00 in
23:39 45.3 °F 42.5 °F 30.17 in Calm     90 % 0.00 in
23:43 45.4 °F 42.6 °F 30.16 in Calm     90 % 0.00 in
23:49 45.5 °F 42.7 °F 30.16 in Calm     90 % 0.00 in
23:54 45.5 °F 42.7 °F 30.16 in Calm     90 % 0.00 in
23:59 45.6 °F 42.8 °F 30.15 in Calm     90 % 0.00 in
Park Place, Exeter, Tulare County, California, USA
Compliments of Weather Underground - 3.5 mb